PWSweather.com
Personal Weather Stations
Station Observations
WAIROAHB
Wairoa, Northern Hawkes Bay -NZ 4108

WairoaNorthern Hawkes Bay -NZ 4108

Lat: -39.04516934, Lon: 177.4263989

Elevation: 156

Station Type: WS3083

http://wairoa.net/weather/index.htm

High Low Average
Temperature 75.7°F24.3°C 63.1°F17.3°C 69.3°F20.7°C
Dew Point 72.2°F22.3°C 62.3°F16.8°C 66.5°F19.2°C
Winds 5.4 mph 8.7 kmh Calm Calm Calm NECalm NE
Wind Gusts 14.5 mph23.3 kmh -- 2.0 mph3.2 kmh
Humidity 99% 77% 91%
Pressure 29.94 in1013.9 mb 29.85 in1010.8 mb -
Precipitation 0.15 in3.8 mm - -
Hour Temp Dew Point Humidity Winds Wind Gusts Pressure Precip Precip Rate Daily Precip Total
12:00 AM 64.2°F17.9°C 63.4°F17.4°C 97% Calm Calm -- 29.92 in1013.2 mb 0.00 in0.0 mm 0.00 in0.0 mm 0.00 in0.0 mm
12:10 AM 64.4°F18.0°C 64.1°F17.8°C 99% Calm Calm -- 29.92 in1013.2 mb 0.00 in0.0 mm 0.00 in0.0 mm 0.00 in0.0 mm
12:20 AM 64.2°F17.9°C 63.4°F17.4°C 97% Calm Calm -- 29.92 in1013.2 mb 0.00 in0.0 mm 0.00 in0.0 mm 0.00 in0.0 mm
12:30 AM 64.2°F17.9°C 63.4°F17.4°C 97% Calm Calm -- 29.92 in1013.2 mb 0.00 in0.0 mm 0.00 in0.0 mm 0.00 in0.0 mm
12:40 AM 64.0°F17.8°C 63.2°F17.3°C 97% Calm Calm -- 29.92 in1013.2 mb 0.00 in0.0 mm 0.00 in0.0 mm 0.00 in0.0 mm
12:50 AM 63.9°F17.7°C 63.0°F17.2°C 97% Calm Calm 0.7 mph1.1 kmh 29.91 in1012.9 mb 0.00 in0.0 mm 0.00 in0.0 mm 0.00 in0.0 mm
01:00 AM 63.5°F17.5°C 62.7°F17.1°C 97% Calm Calm 1.6 mph2.6 kmh 29.91 in1012.9 mb 0.00 in0.0 mm 0.00 in0.0 mm 0.00 in0.0 mm
01:10 AM 63.3°F17.4°C 62.5°F16.9°C 97% Calm Calm 0.7 mph1.1 kmh 29.91 in1012.9 mb 0.00 in0.0 mm 0.00 in0.0 mm 0.00 in0.0 mm
01:20 AM 63.3°F17.4°C 62.5°F16.9°C 97% Calm Calm 1.6 mph2.6 kmh 29.91 in1012.9 mb 0.00 in0.0 mm 0.00 in0.0 mm 0.00 in0.0 mm
01:30 AM 63.3°F17.4°C 62.5°F16.9°C 97% Calm Calm -- 29.91 in1012.9 mb 0.00 in0.0 mm 0.00 in0.0 mm 0.00 in0.0 mm
01:40 AM 63.1°F17.3°C 62.3°F16.8°C 97% Calm Calm -- 29.91 in1012.9 mb 0.00 in0.0 mm 0.00 in0.0 mm 0.00 in0.0 mm
01:50 AM 63.3°F17.4°C 62.5°F16.9°C 97% Calm Calm -- 29.91 in1012.9 mb 0.00 in0.0 mm 0.00 in0.0 mm 0.00 in0.0 mm
02:00 AM 63.3°F17.4°C 62.5°F16.9°C 97% Calm Calm 0.7 mph1.1 kmh 29.91 in1012.9 mb 0.00 in0.0 mm 0.00 in0.0 mm 0.00 in0.0 mm
02:10 AM 63.3°F17.4°C 62.5°F16.9°C 97% Calm Calm -- 29.91 in1012.9 mb 0.00 in0.0 mm 0.00 in0.0 mm 0.00 in0.0 mm
02:20 AM 63.5°F17.5°C 62.7°F17.1°C 97% Calm Calm -- 29.91 in1012.9 mb 0.00 in0.0 mm 0.00 in0.0 mm 0.00 in0.0 mm
02:30 AM 63.5°F17.5°C 62.7°F17.1°C 97% Calm Calm -- 29.90 in1012.5 mb 0.00 in0.0 mm 0.00 in0.0 mm 0.00 in0.0 mm
02:40 AM 63.5°F17.5°C 62.7°F17.1°C 97% Calm Calm 0.7 mph1.1 kmh 29.90 in1012.5 mb 0.00 in0.0 mm 0.00 in0.0 mm 0.00 in0.0 mm
02:50 AM 63.7°F17.6°C 62.8°F17.1°C 97% 0.7 mph NNW1.1 kmh NNW 2.2 mph3.5 kmh 29.90 in1012.5 mb 0.00 in0.0 mm 0.00 in0.0 mm 0.00 in0.0 mm
03:00 AM 63.9°F17.7°C 63.0°F17.2°C 97% Calm Calm 2.2 mph3.5 kmh 29.90 in1012.5 mb 0.00 in0.0 mm 0.00 in0.0 mm 0.00 in0.0 mm
03:10 AM 63.9°F17.7°C 63.0°F17.2°C 97% Calm Calm -- 29.90 in1012.5 mb 0.00 in0.0 mm 0.00 in0.0 mm 0.00 in0.0 mm
03:20 AM 64.0°F17.8°C 63.2°F17.3°C 97% Calm Calm -- 29.90 in1012.5 mb 0.00 in0.0 mm 0.00 in0.0 mm 0.00 in0.0 mm
03:30 AM 64.0°F17.8°C 63.2°F17.3°C 97% Calm Calm -- 29.90 in1012.5 mb 0.00 in0.0 mm 0.00 in0.0 mm 0.00 in0.0 mm
03:40 AM 64.2°F17.9°C 63.4°F17.4°C 97% Calm Calm -- 29.89 in1012.2 mb 0.00 in0.0 mm 0.00 in0.0 mm 0.00 in0.0 mm
03:50 AM 64.0°F17.8°C 63.2°F17.3°C 97% Calm Calm -- 29.90 in1012.5 mb 0.00 in0.0 mm 0.00 in0.0 mm 0.00 in0.0 mm
04:00 AM 64.2°F17.9°C 63.4°F17.4°C 97% Calm Calm -- 29.90 in1012.5 mb 0.00 in0.0 mm 0.00 in0.0 mm 0.00 in0.0 mm
04:10 AM 64.2°F17.9°C 63.4°F17.4°C 97% Calm Calm -- 29.90 in1012.5 mb 0.00 in0.0 mm 0.00 in0.0 mm 0.00 in0.0 mm
04:20 AM 64.2°F17.9°C 63.4°F17.4°C 97% Calm Calm -- 29.90 in1012.5 mb 0.00 in0.0 mm 0.00 in0.0 mm 0.00 in0.0 mm
04:30 AM 64.2°F17.9°C 63.4°F17.4°C 97% Calm Calm -- 29.91 in1012.9 mb 0.00 in0.0 mm 0.00 in0.0 mm 0.00 in0.0 mm
04:40 AM 64.2°F17.9°C 63.4°F17.4°C 97% Calm Calm -- 29.91 in1012.9 mb 0.00 in0.0 mm 0.00 in0.0 mm 0.00 in0.0 mm
04:50 AM 64.2°F17.9°C 63.4°F17.4°C 97% Calm Calm -- 29.90 in1012.5 mb 0.00 in0.0 mm 0.00 in0.0 mm 0.00 in0.0 mm
05:00 AM 64.2°F17.9°C 63.4°F17.4°C 97% Calm Calm -- 29.90 in1012.5 mb 0.00 in0.0 mm 0.00 in0.0 mm 0.00 in0.0 mm
05:10 AM 64.4°F18.0°C 64.1°F17.8°C 99% Calm Calm -- 29.91 in1012.9 mb 0.00 in0.0 mm 0.00 in0.0 mm 0.00 in0.0 mm
05:20 AM 64.8°F18.2°C 64.5°F18.1°C 99% Calm Calm -- 29.91 in1012.9 mb 0.00 in0.0 mm 0.00 in0.0 mm 0.00 in0.0 mm
05:30 AM 64.9°F18.3°C 64.7°F18.2°C 99% Calm Calm -- 29.91 in1012.9 mb 0.00 in0.0 mm 0.00 in0.0 mm 0.00 in0.0 mm
05:40 AM 64.9°F18.3°C 64.7°F18.2°C 99% Calm Calm -- 29.90 in1012.5 mb 0.00 in0.0 mm 0.00 in0.0 mm 0.00 in0.0 mm
05:50 AM 64.9°F18.3°C 64.7°F18.2°C 99% Calm Calm -- 29.91 in1012.9 mb 0.00 in0.0 mm 0.00 in0.0 mm 0.00 in0.0 mm
06:00 AM 64.9°F18.3°C 64.7°F18.2°C 99% Calm Calm -- 29.91 in1012.9 mb 0.00 in0.0 mm 0.00 in0.0 mm 0.00 in0.0 mm
06:10 AM 64.9°F18.3°C 64.7°F18.2°C 99% Calm Calm -- 29.92 in1013.2 mb 0.00 in0.0 mm 0.00 in0.0 mm 0.00 in0.0 mm
06:20 AM 65.1°F18.4°C 64.9°F18.3°C 99% Calm Calm -- 29.92 in1013.2 mb 0.00 in0.0 mm 0.00 in0.0 mm 0.00 in0.0 mm
06:30 AM 64.9°F18.3°C 64.7°F18.2°C 99% Calm Calm -- 29.92 in1013.2 mb 0.00 in0.0 mm 0.00 in0.0 mm 0.00 in0.0 mm
06:40 AM 65.1°F18.4°C 64.9°F18.3°C 99% Calm Calm -- 29.92 in1013.2 mb 0.00 in0.0 mm 0.00 in0.0 mm 0.00 in0.0 mm
06:50 AM 65.5°F18.6°C 65.2°F18.4°C 99% Calm Calm -- 29.93 in1013.5 mb 0.00 in0.0 mm 0.00 in0.0 mm 0.00 in0.0 mm
07:00 AM 65.8°F18.8°C 65.6°F18.7°C 99% Calm Calm -- 29.93 in1013.5 mb 0.00 in0.0 mm 0.00 in0.0 mm 0.00 in0.0 mm
07:10 AM 66.4°F19.1°C 66.1°F18.9°C 99% Calm Calm -- 29.93 in1013.5 mb 0.00 in0.0 mm 0.00 in0.0 mm 0.00 in0.0 mm
07:20 AM 66.9°F19.4°C 66.7°F19.3°C 99% Calm Calm -- 29.93 in1013.5 mb 0.00 in0.0 mm 0.00 in0.0 mm 0.00 in0.0 mm
07:30 AM 67.6°F19.8°C 67.4°F19.7°C 99% Calm Calm -- 29.92 in1013.2 mb 0.00 in0.0 mm 0.00 in0.0 mm 0.00 in0.0 mm
07:40 AM 68.4°F20.2°C 68.1°F20.1°C 99% Calm Calm -- 29.93 in1013.5 mb 0.00 in0.0 mm 0.00 in0.0 mm 0.00 in0.0 mm
07:50 AM 69.1°F20.6°C 68.2°F20.1°C 97% Calm Calm -- 29.93 in1013.5 mb 0.00 in0.0 mm 0.00 in0.0 mm 0.00 in0.0 mm
08:00 AM 69.6°F20.9°C 68.2°F20.1°C 95% Calm Calm -- 29.93 in1013.5 mb 0.00 in0.0 mm 0.00 in0.0 mm 0.00 in0.0 mm
08:10 AM 70.0°F21.1°C 67.6°F19.8°C 92% Calm Calm -- 29.93 in1013.5 mb 0.00 in0.0 mm 0.00 in0.0 mm 0.00 in0.0 mm
08:20 AM 70.7°F21.5°C 67.7°F19.8°C 90% Calm Calm -- 29.93 in1013.5 mb 0.00 in0.0 mm 0.00 in0.0 mm 0.00 in0.0 mm
08:30 AM 70.7°F21.5°C 67.0°F19.4°C 88% 2.2 mph SSE3.5 kmh SSE 3.8 mph6.1 kmh 29.93 in1013.5 mb 0.00 in0.0 mm 0.00 in0.0 mm 0.00 in0.0 mm
08:40 AM 70.2°F21.2°C 66.8°F19.3°C 89% 2.2 mph S3.5 kmh S 3.8 mph6.1 kmh 29.93 in1013.5 mb 0.00 in0.0 mm 0.00 in0.0 mm 0.00 in0.0 mm
08:50 AM 70.3°F21.3°C 67.6°F19.8°C 91% 3.1 mph SSE5.0 kmh SSE 5.4 mph8.7 kmh 29.93 in1013.5 mb 0.00 in0.0 mm 0.00 in0.0 mm 0.00 in0.0 mm
09:00 AM 70.5°F21.4°C 67.5°F19.7°C 90% 1.6 mph SSE2.6 kmh SSE 4.5 mph7.2 kmh 29.93 in1013.5 mb 0.00 in0.0 mm 0.00 in0.0 mm 0.00 in0.0 mm
09:10 AM 71.4°F21.9°C 68.4°F20.2°C 90% 1.6 mph SSE2.6 kmh SSE 4.5 mph7.2 kmh 29.93 in1013.5 mb 0.00 in0.0 mm 0.00 in0.0 mm 0.00 in0.0 mm
09:20 AM 72.0°F22.2°C 67.2°F19.6°C 85% 2.2 mph S3.5 kmh S 6.0 mph9.7 kmh 29.93 in1013.5 mb 0.00 in0.0 mm 0.00 in0.0 mm 0.00 in0.0 mm
09:30 AM 72.5°F22.5°C 67.8°F19.9°C 85% 1.6 mph SSE2.6 kmh SSE 4.5 mph7.2 kmh 29.93 in1013.5 mb 0.00 in0.0 mm 0.00 in0.0 mm 0.00 in0.0 mm
09:40 AM 72.7°F22.6°C 67.6°F19.8°C 84% 3.1 mph SSE5.0 kmh SSE 6.9 mph11.1 kmh 29.93 in1013.5 mb 0.00 in0.0 mm 0.00 in0.0 mm 0.00 in0.0 mm
09:50 AM 72.9°F22.7°C 67.4°F19.7°C 83% 0.7 mph S1.1 kmh S 6.0 mph9.7 kmh 29.93 in1013.5 mb 0.00 in0.0 mm 0.00 in0.0 mm 0.00 in0.0 mm
10:00 AM 73.8°F23.2°C 68.7°F20.4°C 84% 3.1 mph S5.0 kmh S 6.9 mph11.1 kmh 29.94 in1013.9 mb 0.00 in0.0 mm 0.00 in0.0 mm 0.00 in0.0 mm
10:10 AM 73.6°F23.1°C 68.5°F20.3°C 84% 2.2 mph S3.5 kmh S 6.9 mph11.1 kmh 29.93 in1013.5 mb 0.00 in0.0 mm 0.00 in0.0 mm 0.00 in0.0 mm
10:20 AM 73.8°F23.2°C 68.0°F20.0°C 82% 2.2 mph SSE3.5 kmh SSE 9.2 mph14.8 kmh 29.93 in1013.5 mb 0.00 in0.0 mm 0.00 in0.0 mm 0.00 in0.0 mm
10:30 AM 75.0°F23.9°C 69.5°F20.8°C 83% 2.2 mph S3.5 kmh S 7.6 mph12.2 kmh 29.93 in1013.5 mb 0.00 in0.0 mm 0.00 in0.0 mm 0.00 in0.0 mm
10:40 AM 75.7°F24.3°C 68.1°F20.1°C 77% Calm Calm 7.6 mph12.2 kmh 29.93 in1013.5 mb 0.00 in0.0 mm 0.00 in0.0 mm 0.00 in0.0 mm
10:50 AM 75.7°F24.3°C 68.1°F20.1°C 77% 2.2 mph S3.5 kmh S 8.3 mph13.4 kmh 29.93 in1013.5 mb 0.00 in0.0 mm 0.00 in0.0 mm 0.00 in0.0 mm
11:00 AM 74.3°F23.5°C 67.8°F19.9°C 80% 1.6 mph S2.6 kmh S 12.1 mph19.5 kmh 29.93 in1013.5 mb 0.00 in0.0 mm 0.00 in0.0 mm 0.00 in0.0 mm
11:10 AM 73.9°F23.3°C 67.8°F19.9°C 81% 2.2 mph S3.5 kmh S 7.6 mph12.2 kmh 29.93 in1013.5 mb 0.00 in0.0 mm 0.00 in0.0 mm 0.00 in0.0 mm
11:20 AM 74.5°F23.6°C 68.3°F20.2°C 81% 0.7 mph SSE1.1 kmh SSE 6.9 mph11.1 kmh 29.93 in1013.5 mb 0.00 in0.0 mm 0.00 in0.0 mm 0.00 in0.0 mm
11:30 AM 74.1°F23.4°C 67.6°F19.8°C 80% 0.7 mph SE1.1 kmh SE 8.3 mph13.4 kmh 29.93 in1013.5 mb 0.00 in0.0 mm 0.00 in0.0 mm 0.00 in0.0 mm
11:40 AM 74.5°F23.6°C 68.3°F20.2°C 81% 5.4 mph SSE8.7 kmh SSE 6.9 mph11.1 kmh 29.93 in1013.5 mb 0.00 in0.0 mm 0.00 in0.0 mm 0.00 in0.0 mm
11:50 AM 73.8°F23.2°C 68.0°F20.0°C 82% 4.5 mph SSE7.2 kmh SSE 9.8 mph15.8 kmh 29.93 in1013.5 mb 0.00 in0.0 mm 0.00 in0.0 mm 0.00 in0.0 mm
12:00 PM 74.5°F23.6°C 69.0°F20.6°C 83% 1.6 mph SSE2.6 kmh SSE 9.8 mph15.8 kmh 29.92 in1013.2 mb 0.00 in0.0 mm 0.00 in0.0 mm 0.00 in0.0 mm
12:10 PM 75.0°F23.9°C 69.2°F20.7°C 82% Calm Calm 6.9 mph11.1 kmh 29.92 in1013.2 mb 0.00 in0.0 mm 0.00 in0.0 mm 0.00 in0.0 mm
12:20 PM 75.4°F24.1°C 68.5°F20.3°C 79% 2.2 mph SE3.5 kmh SE 11.4 mph18.3 kmh 29.91 in1012.9 mb 0.00 in0.0 mm 0.00 in0.0 mm 0.00 in0.0 mm
12:30 PM 75.2°F24.0°C 67.9°F19.9°C 78% Calm Calm 9.8 mph15.8 kmh 29.91 in1012.9 mb 0.00 in0.0 mm 0.00 in0.0 mm 0.00 in0.0 mm
12:40 PM 74.8°F23.8°C 68.3°F20.2°C 80% 4.5 mph S7.2 kmh S 13.6 mph21.9 kmh 29.91 in1012.9 mb 0.00 in0.0 mm 0.00 in0.0 mm 0.00 in0.0 mm
12:50 PM 75.4°F24.1°C 68.8°F20.4°C 80% 4.5 mph SE7.2 kmh SE 9.2 mph14.8 kmh 29.91 in1012.9 mb 0.00 in0.0 mm 0.00 in0.0 mm 0.00 in0.0 mm
01:00 PM 75.4°F24.1°C 67.7°F19.8°C 77% 3.1 mph SSE5.0 kmh SSE 9.8 mph15.8 kmh 29.90 in1012.5 mb 0.00 in0.0 mm 0.00 in0.0 mm 0.00 in0.0 mm
01:10 PM 73.6°F23.1°C 67.4°F19.7°C 81% Calm Calm 8.3 mph13.4 kmh 29.90 in1012.5 mb 0.00 in0.0 mm 0.00 in0.0 mm 0.00 in0.0 mm
01:20 PM 74.3°F23.5°C 68.5°F20.3°C 82% Calm Calm 5.4 mph8.7 kmh 29.90 in1012.5 mb 0.00 in0.0 mm 0.00 in0.0 mm 0.00 in0.0 mm
01:30 PM 74.8°F23.8°C 67.9°F19.9°C 79% 0.7 mph SE1.1 kmh SE 5.4 mph8.7 kmh 29.90 in1012.5 mb 0.00 in0.0 mm 0.00 in0.0 mm 0.00 in0.0 mm
01:40 PM 73.8°F23.2°C 67.2°F19.6°C 80% 0.7 mph SE1.1 kmh SE 6.9 mph11.1 kmh 29.90 in1012.5 mb 0.00 in0.0 mm 0.00 in0.0 mm 0.00 in0.0 mm
01:50 PM 73.6°F23.1°C 67.4°F19.7°C 81% 1.6 mph E2.6 kmh E 4.5 mph7.2 kmh 29.89 in1012.2 mb 0.00 in0.0 mm 0.00 in0.0 mm 0.00 in0.0 mm
02:00 PM 74.1°F23.4°C 67.6°F19.8°C 80% Calm Calm 4.5 mph7.2 kmh 29.89 in1012.2 mb 0.00 in0.0 mm 0.00 in0.0 mm 0.00 in0.0 mm
02:10 PM 74.3°F23.5°C 67.8°F19.9°C 80% 1.6 mph ENE2.6 kmh ENE 10.7 mph17.2 kmh 29.90 in1012.5 mb 0.00 in0.0 mm 0.00 in0.0 mm 0.00 in0.0 mm
02:20 PM 70.5°F21.4°C 65.1°F18.4°C 83% Calm Calm 14.5 mph23.3 kmh 29.89 in1012.2 mb 0.09 in2.3 mm 0.54 in13.7 mm 0.09 in2.3 mm
02:30 PM 68.5°F20.3°C 65.8°F18.8°C 91% Calm Calm 1.6 mph2.6 kmh 29.89 in1012.2 mb 0.12 in3.0 mm 0.18 in4.6 mm 0.12 in3.0 mm
02:40 PM 68.0°F20.0°C 66.5°F19.2°C 95% Calm Calm 7.6 mph12.2 kmh 29.89 in1012.2 mb 0.14 in3.6 mm 0.12 in3.0 mm 0.14 in3.6 mm
02:50 PM 68.2°F20.1°C 67.3°F19.6°C 97% Calm Calm 3.1 mph5.0 kmh 29.88 in1011.9 mb 0.14 in3.6 mm 0.00 in0.0 mm 0.14 in3.6 mm
03:00 PM 68.5°F20.3°C 68.0°F20.0°C 98% Calm Calm 2.2 mph3.5 kmh 29.88 in1011.9 mb 0.14 in3.6 mm 0.00 in0.0 mm 0.14 in3.6 mm
03:10 PM 69.3°F20.7°C 68.7°F20.4°C 98% Calm Calm -- 29.88 in1011.9 mb 0.14 in3.6 mm 0.00 in0.0 mm 0.14 in3.6 mm
03:20 PM 69.4°F20.8°C 68.9°F20.5°C 98% Calm Calm 0.7 mph1.1 kmh 29.87 in1011.5 mb 0.05 in1.3 mm 0.00 in0.0 mm 0.14 in3.6 mm
03:30 PM 69.6°F20.9°C 69.1°F20.6°C 98% Calm Calm 0.7 mph1.1 kmh 29.87 in1011.5 mb 0.02 in0.5 mm 0.00 in0.0 mm 0.14 in3.6 mm
03:40 PM 69.6°F20.9°C 69.1°F20.6°C 98% Calm Calm 0.7 mph1.1 kmh 29.87 in1011.5 mb 0.00 in0.0 mm 0.00 in0.0 mm 0.14 in3.6 mm
03:50 PM 70.3°F21.3°C 69.5°F20.8°C 97% Calm Calm -- 29.87 in1011.5 mb 0.00 in0.0 mm 0.00 in0.0 mm 0.14 in3.6 mm
04:00 PM 70.7°F21.5°C 69.8°F21.0°C 97% Calm Calm 2.2 mph3.5 kmh 29.87 in1011.5 mb 0.00 in0.0 mm 0.00 in0.0 mm 0.14 in3.6 mm
04:10 PM 70.9°F21.6°C 69.4°F20.8°C 95% Calm Calm 2.2 mph3.5 kmh 29.86 in1011.2 mb 0.00 in0.0 mm 0.00 in0.0 mm 0.14 in3.6 mm
04:20 PM 71.6°F22.0°C 69.8°F21.0°C 94% Calm Calm -- 29.86 in1011.2 mb 0.00 in0.0 mm 0.00 in0.0 mm 0.14 in3.6 mm
04:30 PM 72.5°F22.5°C 70.4°F21.3°C 93% Calm Calm 0.7 mph1.1 kmh 29.86 in1011.2 mb 0.00 in0.0 mm 0.00 in0.0 mm 0.14 in3.6 mm
04:40 PM 74.7°F23.7°C 72.2°F22.3°C 92% Calm Calm 1.6 mph2.6 kmh 29.86 in1011.2 mb 0.00 in0.0 mm 0.00 in0.0 mm 0.14 in3.6 mm
04:50 PM 75.6°F24.2°C 71.1°F21.7°C 86% Calm Calm 2.2 mph3.5 kmh 29.86 in1011.2 mb 0.01 in0.3 mm 0.06 in1.5 mm 0.15 in3.8 mm
05:00 PM 75.0°F23.9°C 70.6°F21.4°C 86% Calm Calm 1.6 mph2.6 kmh 29.86 in1011.2 mb 0.01 in0.3 mm 0.00 in0.0 mm 0.15 in3.8 mm
05:10 PM 74.7°F23.7°C 70.2°F21.2°C 86% Calm Calm 1.6 mph2.6 kmh 29.85 in1010.8 mb 0.01 in0.3 mm 0.00 in0.0 mm 0.15 in3.8 mm
05:20 PM 73.4°F23.0°C 69.0°F20.6°C 86% Calm Calm 2.2 mph3.5 kmh 29.86 in1011.2 mb 0.01 in0.3 mm 0.00 in0.0 mm 0.15 in3.8 mm
05:30 PM 72.3°F22.4°C 67.6°F19.8°C 85% Calm Calm 3.1 mph5.0 kmh 29.86 in1011.2 mb 0.01 in0.3 mm 0.00 in0.0 mm 0.15 in3.8 mm
05:40 PM 72.3°F22.4°C 67.9°F19.9°C 86% Calm Calm 2.2 mph3.5 kmh 29.85 in1010.8 mb 0.01 in0.3 mm 0.00 in0.0 mm 0.15 in3.8 mm
05:50 PM 72.7°F22.6°C 68.3°F20.2°C 86% Calm Calm 2.2 mph3.5 kmh 29.86 in1011.2 mb 0.00 in0.0 mm 0.00 in0.0 mm 0.15 in3.8 mm
06:00 PM 72.7°F22.6°C 68.3°F20.2°C 86% Calm Calm 0.7 mph1.1 kmh 29.86 in1011.2 mb 0.00 in0.0 mm 0.00 in0.0 mm 0.15 in3.8 mm
06:10 PM 73.0°F22.8°C 69.0°F20.6°C 87% Calm Calm -- 29.85 in1010.8 mb 0.00 in0.0 mm 0.00 in0.0 mm 0.15 in3.8 mm
06:20 PM 72.9°F22.7°C 68.5°F20.3°C 86% Calm Calm -- 29.86 in1011.2 mb 0.00 in0.0 mm 0.00 in0.0 mm 0.15 in3.8 mm
06:30 PM 72.3°F22.4°C 68.3°F20.2°C 87% Calm Calm 0.7 mph1.1 kmh 29.86 in1011.2 mb 0.00 in0.0 mm 0.00 in0.0 mm 0.15 in3.8 mm
06:40 PM 72.1°F22.3°C 68.8°F20.4°C 89% Calm Calm -- 29.86 in1011.2 mb 0.00 in0.0 mm 0.00 in0.0 mm 0.15 in3.8 mm
06:50 PM 72.3°F22.4°C 68.9°F20.5°C 89% Calm Calm -- 29.86 in1011.2 mb 0.00 in0.0 mm 0.00 in0.0 mm 0.15 in3.8 mm
07:00 PM 72.0°F22.2°C 68.9°F20.5°C 90% Calm Calm -- 29.87 in1011.5 mb 0.00 in0.0 mm 0.00 in0.0 mm 0.15 in3.8 mm
07:10 PM 71.6°F22.0°C 68.9°F20.5°C 91% Calm Calm -- 29.87 in1011.5 mb 0.00 in0.0 mm 0.00 in0.0 mm 0.15 in3.8 mm
07:20 PM 71.4°F21.9°C 69.0°F20.6°C 92% Calm Calm -- 29.87 in1011.5 mb 0.00 in0.0 mm 0.00 in0.0 mm 0.15 in3.8 mm
07:30 PM 71.2°F21.8°C 68.8°F20.4°C 92% Calm Calm -- 29.87 in1011.5 mb 0.00 in0.0 mm 0.00 in0.0 mm 0.15 in3.8 mm
07:40 PM 71.1°F21.7°C 69.0°F20.6°C 93% Calm Calm -- 29.87 in1011.5 mb 0.00 in0.0 mm 0.00 in0.0 mm 0.15 in3.8 mm
07:50 PM 70.7°F21.5°C 68.9°F20.5°C 94% Calm Calm -- 29.87 in1011.5 mb 0.00 in0.0 mm 0.00 in0.0 mm 0.15 in3.8 mm
08:00 PM 70.5°F21.4°C 69.1°F20.6°C 95% Calm Calm -- 29.87 in1011.5 mb 0.00 in0.0 mm 0.00 in0.0 mm 0.15 in3.8 mm
08:10 PM 70.2°F21.2°C 69.0°F20.6°C 96% Calm Calm -- 29.87 in1011.5 mb 0.00 in0.0 mm 0.00 in0.0 mm 0.15 in3.8 mm
08:20 PM 69.8°F21.0°C 68.6°F20.3°C 96% Calm Calm -- 29.87 in1011.5 mb 0.00 in0.0 mm 0.00 in0.0 mm 0.15 in3.8 mm
08:30 PM 69.6°F20.9°C 68.5°F20.3°C 96% Calm Calm 0.7 mph1.1 kmh 29.88 in1011.9 mb 0.00 in0.0 mm 0.00 in0.0 mm 0.15 in3.8 mm
08:40 PM 69.6°F20.9°C 67.9°F19.9°C 94% Calm Calm -- 29.89 in1012.2 mb 0.00 in0.0 mm 0.00 in0.0 mm 0.15 in3.8 mm
08:50 PM 69.6°F20.9°C 67.9°F19.9°C 94% Calm Calm 0.7 mph1.1 kmh 29.89 in1012.2 mb 0.00 in0.0 mm 0.00 in0.0 mm 0.15 in3.8 mm
09:00 PM 69.3°F20.7°C 67.5°F19.7°C 94% Calm Calm 0.7 mph1.1 kmh 29.89 in1012.2 mb 0.00 in0.0 mm 0.00 in0.0 mm 0.15 in3.8 mm
09:10 PM 69.4°F20.8°C 66.4°F19.1°C 90% 0.7 mph NE1.1 kmh NE 3.1 mph5.0 kmh 29.89 in1012.2 mb 0.00 in0.0 mm 0.00 in0.0 mm 0.15 in3.8 mm
09:20 PM 69.6°F20.9°C 65.6°F18.7°C 87% Calm Calm 1.6 mph2.6 kmh 29.89 in1012.2 mb 0.00 in0.0 mm 0.00 in0.0 mm 0.15 in3.8 mm
09:30 PM 69.8°F21.0°C 65.1°F18.4°C 85% Calm Calm 0.7 mph1.1 kmh 29.90 in1012.5 mb 0.00 in0.0 mm 0.00 in0.0 mm 0.15 in3.8 mm
09:40 PM 69.8°F21.0°C 65.8°F18.8°C 87% Calm Calm -- 29.89 in1012.2 mb 0.00 in0.0 mm 0.00 in0.0 mm 0.15 in3.8 mm
09:50 PM 69.1°F20.6°C 66.4°F19.1°C 91% Calm Calm -- 29.89 in1012.2 mb 0.00 in0.0 mm 0.00 in0.0 mm 0.15 in3.8 mm
10:00 PM 68.5°F20.3°C 65.5°F18.6°C 90% Calm Calm -- 29.89 in1012.2 mb 0.00 in0.0 mm 0.00 in0.0 mm 0.15 in3.8 mm
10:10 PM 68.9°F20.5°C 64.9°F18.3°C 87% Calm Calm -- 29.89 in1012.2 mb 0.00 in0.0 mm 0.00 in0.0 mm 0.15 in3.8 mm
10:20 PM 69.6°F20.9°C 64.9°F18.3°C 85% Calm Calm 2.2 mph3.5 kmh 29.90 in1012.5 mb 0.00 in0.0 mm 0.00 in0.0 mm 0.15 in3.8 mm
10:30 PM 69.6°F20.9°C 64.9°F18.3°C 85% Calm Calm 3.1 mph5.0 kmh 29.89 in1012.2 mb 0.00 in0.0 mm 0.00 in0.0 mm 0.15 in3.8 mm
10:40 PM 69.8°F21.0°C 64.4°F18.0°C 83% Calm Calm 4.5 mph7.2 kmh 29.89 in1012.2 mb 0.00 in0.0 mm 0.00 in0.0 mm 0.15 in3.8 mm
10:50 PM 69.8°F21.0°C 64.4°F18.0°C 83% Calm Calm 5.4 mph8.7 kmh 29.89 in1012.2 mb 0.00 in0.0 mm 0.00 in0.0 mm 0.15 in3.8 mm
11:00 PM 69.4°F20.8°C 64.8°F18.2°C 85% Calm Calm 1.6 mph2.6 kmh 29.89 in1012.2 mb 0.00 in0.0 mm 0.00 in0.0 mm 0.15 in3.8 mm
11:10 PM 69.1°F20.6°C 64.4°F18.0°C 85% Calm Calm -- 29.88 in1011.9 mb 0.00 in0.0 mm 0.00 in0.0 mm 0.15 in3.8 mm
11:20 PM 68.9°F20.5°C 64.2°F17.9°C 85% Calm Calm 2.2 mph3.5 kmh 29.89 in1012.2 mb 0.00 in0.0 mm 0.00 in0.0 mm 0.15 in3.8 mm
11:30 PM 68.5°F20.3°C 64.2°F17.9°C 86% Calm Calm -- 29.88 in1011.9 mb 0.00 in0.0 mm 0.00 in0.0 mm 0.15 in3.8 mm
11:40 PM 68.4°F20.2°C 64.4°F18.0°C 87% Calm Calm -- 29.88 in1011.9 mb 0.00 in0.0 mm 0.00 in0.0 mm 0.15 in3.8 mm
11:50 PM 68.2°F20.1°C 64.5°F18.1°C 88% Calm Calm -- 29.88 in1011.9 mb 0.00 in0.0 mm 0.00 in0.0 mm 0.15 in3.8 mm